Hlavní strana
METAR-TAF:

METAR-TAF

Letiště :

Tarbes Lurdy, Francie

zeměpisná šířka: 43-11N, zeměpisná délka: 000-00W, výška: 379 m

Aktuální stav počasí

Zpráva byla vytvořena před 21 minutami, v 04:30 UTC
Jižní vítr 5 kt
Teplota 12°C
Vlhkost vzduchu 88%
Tlak 1029 hPa
Viditelnost 10 km a více
Žádná oblačnost pod 1500 m, nevyskytují se cumulonimby.

METAR: LFBT 260430Z AUTO 17005KT CAVOK 12/10 Q1029

Čas: 06:51 (04:51 UTC)


TAF: chybějící

Stav a předpovědi počasí z více než 4 000 letišť (zprávy METAR a TAF).

Červené a žluté tečky na mapě představují dostupné meteorologické stanice.

Když kurzor umístíte na tečku, zobrazí se název stanice.

Pak kliknutím zobrazíte stav a předpověď počasí.

Chcete-li změnit mapu, kliknutím na zelené tlačítko se znaménkem +mapu přiblížíte, kliknutím na zelené tlačítko se znaménkem – mapu oddálíte a kliknutím na zelené šipky přejdete na sousední mapy.


METAR-TAF: